OMRK

Ras Al Khaimah International Airport

Ras Al Khaimah, United Arab Emirates
TAF OMRK 232300Z 2400/2506 VRB02KT 9999 FEW040 BECMG 2405/2407 28015KT BECMG 2415/2417 15006KT
Issued Valid From Valid To
Oct-23 @ 23:00 UTC
(6 hours ago)
Oct-24 @ 00:00 UTC
(5 hours ago)
Oct-25 @ 06:00 UTC
(-1 days ago)
Expired Click to View Oct-24 @ 00:00 to Oct-24 @ 05:00
TAF OMRK 232300Z 2400/2506 VRB02KT 9999 FEW040
Wind Visibility Clouds
Variable at 2 knots 10,000+ meters
  • Few at 4,000' AGL
Becoming Oct-24 @ 05:00 to Oct-24 @ 15:00
BECMG 2405/2407 28015KT
Wind Visibility Clouds
280° at 15 knots 10,000+ meters
  • Few at 4,000' AGL
Becoming Oct-24 @ 15:00 to Oct-25 @ 06:00
BECMG 2415/2417 15006KT
Wind Visibility Clouds
150° at 6 knots 10,000+ meters
  • Few at 4,000' AGL
TAF OMRK 232300Z 2400/2506 VRB02KT 9999 FEW040 BECMG 2405/2407 28015KT BECMG 2415/2417 15006KT
Issued Oct-23 @ 23:00 UTC
(6 hours ago)
Valid From Oct-24 @ 00:00 UTC
(5 hours ago)
Valid To Oct-25 @ 06:00 UTC
(-1 days ago)
Oct-24 @ 00:00 - Oct-24 @ 05:00
Wind Visibility
Variable at 2 knots 10,000+ meters
Clouds
  • Few at 4,000' AGL
Becoming Oct-24 @ 05:00 - Oct-24 @ 15:00
Wind Visibility
280° at 15 knots 10,000+ meters
Clouds
  • Few at 4,000' AGL
Becoming Oct-24 @ 15:00 - Oct-25 @ 06:00
Wind Visibility
150° at 6 knots 10,000+ meters
Clouds
  • Few at 4,000' AGL